createdAt,value
2023-01-17T00:00:15.933Z,95318.56
2023-01-17T00:05:12.285Z,95303.38
2023-01-17T00:09:48.533Z,95315.69
2023-01-17T00:14:06.045Z,95324.09
2023-01-17T00:18:23.703Z,95314.91
2023-01-17T00:23:02.610Z,95313.03
2023-01-17T00:27:20.064Z,95312.03
2023-01-17T00:31:37.751Z,95316.28
2023-01-17T00:35:57.882Z,95331.22
2023-01-17T00:40:16.775Z,95331.16
2023-01-17T00:44:52.829Z,95324.22
2023-01-17T00:49:29.381Z,95332.56
2023-01-17T00:54:05.679Z,95330.91
2023-01-17T00:58:41.979Z,95316.53
2023-01-17T01:03:18.191Z,95323.00
2023-01-17T01:07:54.807Z,95326.03
2023-01-17T01:12:31.149Z,95312.19
2023-01-17T01:17:29.508Z,95319.81
2023-01-17T01:22:24.018Z,95322.44
2023-01-17T01:27:00.110Z,95318.78
2023-01-17T01:31:36.467Z,95313.66
2023-01-17T01:35:55.968Z,95325.25
2023-01-17T01:40:28.827Z,95320.34
2023-01-17T01:45:18.091Z,95324.22
2023-01-17T01:49:42.973Z,95318.78
2023-01-17T01:54:28.139Z,95316.78
2023-01-17T01:58:55.445Z,95319.34
2023-01-17T02:03:32.747Z,95322.38
2023-01-17T02:08:08.837Z,95318.47
2023-01-17T02:12:26.571Z,95305.91
2023-01-17T02:17:21.742Z,95300.00
2023-01-17T02:22:30.340Z,95309.09
2023-01-17T02:26:56.042Z,95307.34
2023-01-17T02:31:33.085Z,95305.38
2023-01-17T02:36:17.645Z,95302.50
2023-01-17T02:40:44.759Z,95320.56
2023-01-17T02:45:03.265Z,95317.56
2023-01-17T02:49:27.487Z,95318.69
2023-01-17T02:54:37.802Z,95321.72
2023-01-17T02:59:18.173Z,95312.56
2023-01-17T03:03:55.440Z,95314.34
2023-01-17T03:08:13.601Z,95313.25
2023-01-17T03:12:33.938Z,95317.78
2023-01-17T03:16:51.711Z,95335.50
2023-01-17T03:21:09.255Z,95335.19
2023-01-17T03:25:27.673Z,95340.78
2023-01-17T03:29:45.152Z,95353.53
2023-01-17T03:34:02.957Z,95356.41
2023-01-17T03:38:21.183Z,95369.44
2023-01-17T03:42:39.876Z,95367.97
2023-01-17T03:46:57.554Z,95363.03
2023-01-17T03:51:15.317Z,95373.50
2023-01-17T03:55:32.972Z,95373.81
2023-01-17T03:59:50.555Z,95370.94
2023-01-17T04:04:08.403Z,95364.72
2023-01-17T04:08:25.966Z,95370.41
2023-01-17T04:12:43.642Z,95372.19
2023-01-17T04:17:01.580Z,95384.75
2023-01-17T04:21:19.258Z,95372.19
2023-01-17T04:25:37.333Z,95376.44
2023-01-17T04:29:55.012Z,95379.00
2023-01-17T04:34:12.553Z,95385.72
2023-01-17T04:38:30.691Z,95394.38
2023-01-17T04:42:48.767Z,95380.34
2023-01-17T04:47:06.391Z,95374.56
2023-01-17T04:51:23.943Z,95375.34
2023-01-17T04:55:41.586Z,95383.34
2023-01-17T04:59:59.124Z,95378.78
2023-01-17T05:04:16.930Z,95382.06
2023-01-17T05:08:34.445Z,95377.84
2023-01-17T05:13:00.126Z,95368.31
2023-01-17T05:17:17.617Z,95371.78
2023-01-17T05:21:35.329Z,95383.06
2023-01-17T05:25:52.808Z,95384.69
2023-01-17T05:30:11.533Z,95385.78
2023-01-17T05:34:29.299Z,95387.34
2023-01-17T05:38:46.892Z,95387.97
2023-01-17T05:43:05.101Z,95381.28
2023-01-17T05:47:22.600Z,95385.53
2023-01-17T05:51:40.170Z,95376.06
2023-01-17T05:55:57.768Z,95388.81
2023-01-17T06:00:17.031Z,95393.47
2023-01-17T06:04:34.580Z,95392.38
2023-01-17T06:08:52.225Z,95382.91
2023-01-17T06:13:15.441Z,95385.72
2023-01-17T06:17:33.066Z,95389.25
2023-01-17T06:21:50.587Z,95404.66
2023-01-17T06:26:09.194Z,95400.22
2023-01-17T06:30:26.917Z,95402.31
2023-01-17T06:34:44.424Z,95410.25
2023-01-17T06:39:03.001Z,95408.22
2023-01-17T06:43:20.481Z,95409.44
2023-01-17T06:47:39.441Z,95414.03
2023-01-17T06:51:57.008Z,95412.56
2023-01-17T06:56:14.479Z,95422.84
2023-01-17T07:00:35.383Z,95419.25
2023-01-17T07:04:52.984Z,95432.06
2023-01-17T07:09:10.479Z,95430.06
2023-01-17T07:13:28.374Z,95437.56
2023-01-17T07:17:45.970Z,95431.97
2023-01-17T07:22:03.423Z,95430.28
2023-01-17T07:26:21.114Z,95427.19
2023-01-17T07:30:38.591Z,95436.31
2023-01-17T07:34:58.184Z,95442.09
2023-01-17T07:39:16.326Z,95445.50
2023-01-17T07:43:35.729Z,95449.78
2023-01-17T07:47:53.121Z,95454.16
2023-01-17T07:52:10.851Z,95449.00
2023-01-17T07:56:28.169Z,95467.19
2023-01-17T08:00:45.889Z,95480.91
2023-01-17T08:05:03.373Z,95471.81
2023-01-17T08:09:20.923Z,95475.34
2023-01-17T08:13:38.307Z,95471.53
2023-01-17T08:17:57.947Z,95490.13
2023-01-17T08:22:15.287Z,95495.22
2023-01-17T08:26:32.889Z,95503.53
2023-01-17T08:30:50.207Z,95496.00
2023-01-17T08:35:09.148Z,95502.56
2023-01-17T08:39:27.719Z,95475.78
2023-01-17T08:43:48.248Z,95467.75
2023-01-17T08:48:05.688Z,95482.31
2023-01-17T08:52:23.153Z,95486.81
2023-01-17T08:56:42.857Z,95492.38
2023-01-17T09:01:02.786Z,95498.75
2023-01-17T09:05:20.649Z,95506.72
2023-01-17T09:09:38.199Z,95508.91
2023-01-17T09:13:55.599Z,95501.63
2023-01-17T09:18:13.064Z,95507.69
2023-01-17T09:22:30.585Z,95508.28
2023-01-17T09:26:47.935Z,95508.03
2023-01-17T09:31:07.639Z,95504.38
2023-01-17T09:35:25.273Z,95506.00
2023-01-17T09:39:42.768Z,95518.78
2023-01-17T09:44:02.051Z,95519.09
2023-01-17T09:48:27.279Z,95523.50
2023-01-17T09:52:45.147Z,95509.19
2023-01-17T09:57:36.287Z,95523.22
2023-01-17T10:01:59.503Z,95523.31
2023-01-17T10:06:19.542Z,95523.78
2023-01-17T10:11:09.603Z,95523.50
2023-01-17T10:15:32.894Z,95536.06
2023-01-17T10:20:04.143Z,95550.31
2023-01-17T10:24:56.743Z,95536.47
2023-01-17T10:29:20.183Z,95529.69
2023-01-17T10:33:51.904Z,95520.78
2023-01-17T10:38:12.704Z,95523.06
2023-01-17T10:42:39.022Z,95505.72
2023-01-17T10:47:00.405Z,95497.50
2023-01-17T10:51:43.298Z,95509.53
2023-01-17T10:56:01.304Z,95521.38
2023-01-17T11:00:28.925Z,95509.59
2023-01-17T11:04:50.371Z,95516.81
2023-01-17T11:09:11.982Z,95510.44
2023-01-17T11:13:38.777Z,95516.56
2023-01-17T11:18:06.561Z,95511.88
2023-01-17T11:22:25.060Z,95517.09
2023-01-17T11:26:47.889Z,95515.50
2023-01-17T11:31:10.121Z,95519.97
2023-01-17T11:35:35.523Z,95521.81
2023-01-17T11:40:06.217Z,95528.09
2023-01-17T11:44:32.488Z,95516.84
2023-01-17T11:48:53.447Z,95549.25
2023-01-17T11:53:31.318Z,95539.72
2023-01-17T11:57:50.681Z,95553.81
2023-01-17T12:02:37.421Z,95567.78
2023-01-17T12:07:22.753Z,95571.34
2023-01-17T12:12:09.275Z,95556.97
2023-01-17T12:17:14.764Z,95544.66
2023-01-17T12:21:50.564Z,95543.50
2023-01-17T12:26:20.827Z,95554.19
2023-01-17T12:30:41.367Z,95559.56
2023-01-17T12:35:19.205Z,95563.69
2023-01-17T12:39:40.273Z,95554.50
2023-01-17T12:44:00.192Z,95558.06
2023-01-17T12:48:19.763Z,95561.91
2023-01-17T12:52:45.981Z,95559.75
2023-01-17T12:57:14.413Z,95560.81
2023-01-17T13:01:40.065Z,95581.47
2023-01-17T13:05:58.155Z,95607.50
2023-01-17T13:10:31.148Z,95643.34
2023-01-17T13:14:49.353Z,95652.06
2023-01-17T13:19:16.753Z,95552.00
2023-01-17T13:23:59.486Z,95537.50
2023-01-17T13:28:28.148Z,95523.44
2023-01-17T13:33:07.305Z,95522.19
2023-01-17T13:37:49.060Z,95524.19
2023-01-17T13:42:29.919Z,95517.88
2023-01-17T13:47:19.262Z,95526.13
2023-01-17T13:52:03.943Z,95536.25
2023-01-17T13:56:27.333Z,95550.59
2023-01-17T14:00:44.857Z,95546.53
2023-01-17T14:05:24.001Z,95551.97
2023-01-17T14:09:43.101Z,95560.66
2023-01-17T14:14:39.017Z,95570.25
2023-01-17T14:18:56.661Z,95575.72
2023-01-17T14:23:28.916Z,95578.94
2023-01-17T14:27:49.592Z,95588.88
2023-01-17T14:32:10.849Z,95597.25
2023-01-17T14:36:33.057Z,95603.25
2023-01-17T14:41:01.011Z,95618.66
2023-01-17T14:45:26.567Z,95627.94
2023-01-17T14:49:44.617Z,95630.78
2023-01-17T14:54:03.455Z,95623.16
2023-01-17T14:58:24.897Z,95618.50
2023-01-17T15:02:45.550Z,95630.19
2023-01-17T15:07:03.572Z,95629.44
2023-01-17T15:11:25.791Z,95629.97
2023-01-17T15:15:43.303Z,95633.25
2023-01-17T15:20:03.523Z,95637.97
2023-01-17T15:24:29.111Z,95644.25
2023-01-17T15:28:47.026Z,95661.09
2023-01-17T15:33:04.661Z,95665.81
2023-01-17T15:37:36.037Z,95675.38
2023-01-17T15:41:59.519Z,95663.38
2023-01-17T15:46:32.443Z,95654.78
2023-01-17T15:50:57.980Z,95653.72
2023-01-17T15:55:48.067Z,95646.66
2023-01-17T16:00:20.987Z,95640.84
2023-01-17T16:04:42.403Z,95649.53
2023-01-17T16:08:59.808Z,95637.81
2023-01-17T16:13:17.197Z,95620.94
2023-01-17T16:17:35.246Z,95615.09
2023-01-17T16:21:52.655Z,95607.84
2023-01-17T16:26:11.092Z,95613.97
2023-01-17T16:30:29.456Z,95612.81
2023-01-17T16:34:46.993Z,95614.53
2023-01-17T16:39:04.699Z,95620.00
2023-01-17T16:43:23.026Z,95621.00
2023-01-17T16:47:45.107Z,95614.19
2023-01-17T16:52:02.702Z,95590.75
2023-01-17T16:56:20.401Z,95589.41
2023-01-17T17:00:40.037Z,95583.22
2023-01-17T17:04:57.435Z,95585.34
2023-01-17T17:09:15.018Z,95583.81
2023-01-17T17:13:35.506Z,95584.56
2023-01-17T17:17:55.110Z,95572.03
2023-01-17T17:22:12.634Z,95563.41
2023-01-17T17:26:32.398Z,95558.03
2023-01-17T17:30:49.898Z,95570.84
2023-01-17T17:35:07.672Z,95576.22
2023-01-17T17:39:25.050Z,95581.28
2023-01-17T17:43:42.675Z,95569.78
2023-01-17T17:48:00.413Z,95575.78
2023-01-17T17:52:17.988Z,95555.44
2023-01-17T17:56:36.376Z,95556.06
2023-01-17T18:00:54.267Z,95570.56
2023-01-17T18:05:11.691Z,95588.53
2023-01-17T18:09:29.277Z,95589.53
2023-01-17T18:13:48.295Z,95593.94
2023-01-17T18:18:05.677Z,95602.50
2023-01-17T18:22:23.338Z,95620.28
2023-01-17T18:27:00.930Z,95624.75
2023-01-17T18:31:18.477Z,95617.22
2023-01-17T18:35:35.979Z,95595.63
2023-01-17T18:39:53.394Z,95601.00
2023-01-17T18:44:12.016Z,95596.66
2023-01-17T18:48:29.503Z,95603.03
2023-01-17T18:52:46.977Z,95612.44
2023-01-17T18:57:04.403Z,95624.13
2023-01-17T19:01:25.434Z,95626.59
2023-01-17T19:05:42.360Z,95617.44
2023-01-17T19:10:00.148Z,95631.34
2023-01-17T19:14:17.605Z,95623.56
2023-01-17T19:18:35.705Z,95619.16
2023-01-17T19:22:53.748Z,95616.22
2023-01-17T19:27:13.159Z,95611.44
2023-01-17T19:31:32.412Z,95610.44
2023-01-17T19:35:49.915Z,95594.50
2023-01-17T19:40:08.683Z,95599.81
2023-01-17T19:44:26.152Z,95595.31
2023-01-17T19:48:43.582Z,95584.59
2023-01-17T19:53:00.879Z,95584.13
2023-01-17T19:57:22.347Z,95582.94
2023-01-17T20:01:39.940Z,95574.66
2023-01-17T20:05:57.592Z,95580.94
2023-01-17T20:10:15.096Z,95566.22
2023-01-17T20:14:32.818Z,95557.16
2023-01-17T20:18:50.348Z,95562.38
2023-01-17T20:23:08.738Z,95550.19
2023-01-17T20:27:26.692Z,95543.19
2023-01-17T20:31:45.293Z,95532.75
2023-01-17T20:36:09.965Z,95520.81
2023-01-17T20:40:27.379Z,95513.31
2023-01-17T20:44:45.574Z,95505.38
2023-01-17T20:49:06.369Z,95490.34
2023-01-17T20:53:23.910Z,95488.03
2023-01-17T20:57:41.518Z,95494.06
2023-01-17T21:01:59.177Z,95491.03
2023-01-17T21:06:16.853Z,95500.47
2023-01-17T21:10:33.954Z,95497.56
2023-01-17T21:14:51.572Z,95490.97
2023-01-17T21:19:12.207Z,95511.91
2023-01-17T21:23:29.890Z,95508.44
2023-01-17T21:27:47.603Z,95507.19
2023-01-17T21:32:05.353Z,95488.09
2023-01-17T21:36:25.692Z,95494.88
2023-01-17T21:40:44.243Z,95500.53
2023-01-17T21:45:01.805Z,95509.78
2023-01-17T21:49:19.336Z,95504.72
2023-01-17T21:53:38.298Z,95515.63
2023-01-17T21:58:14.293Z,95520.19
2023-01-17T22:02:32.044Z,95513.84
2023-01-17T22:06:49.366Z,95516.81
2023-01-17T22:11:09.147Z,95514.41
2023-01-17T22:15:26.509Z,95494.25
2023-01-17T22:19:46.099Z,95509.31
2023-01-17T22:24:03.628Z,95496.88
2023-01-17T22:28:21.285Z,95484.31
2023-01-17T22:32:39.506Z,95476.75
2023-01-17T22:36:56.977Z,95464.53
2023-01-17T22:41:17.009Z,95470.22
2023-01-17T22:45:34.613Z,95453.19
2023-01-17T22:49:51.997Z,95458.88
2023-01-17T22:54:11.610Z,95452.63
2023-01-17T22:58:29.746Z,95447.28
2023-01-17T23:02:48.448Z,95437.13
2023-01-17T23:07:05.924Z,95429.59
2023-01-17T23:11:39.437Z,95435.66
2023-01-17T23:16:15.457Z,95421.84
2023-01-17T23:20:32.991Z,95416.41
2023-01-17T23:24:59.435Z,95409.41
2023-01-17T23:29:16.854Z,95399.34
2023-01-17T23:33:34.297Z,95392.28
2023-01-17T23:38:10.391Z,95388.44
2023-01-17T23:42:46.397Z,95371.75
2023-01-17T23:47:04.005Z,95366.41
2023-01-17T23:51:21.450Z,95362.59
2023-01-17T23:55:40.760Z,95354.41
2023-01-17T23:59:58.183Z,95367.69
